Terminal Aerodrome Forecast
Issued by NWS

Home | Current Version | Previous Version | Text Only | Print | Product List | Glossary On
Versions: 1 2 3 4 5 6 7 8 9 10 11 12 13 14 15
369
FTUS44 KCRP 271734
TAFLRD
TAF
KLRD 271734Z 2718/2818 15014G19KT P6SM SKC
     FM272100 13016G22KT P6SM SCT080
     FM280500 15007KT P6SM SKC
     FM281500 14012KT P6SM SCT250=

USA.gov is the U.S. government's official web portal to all federal, state and local government web resources and services.